createdAt,value
2018-05-25T00:00:09.648Z,16.53
2018-05-25T00:03:12.162Z,15.43
2018-05-25T00:06:14.711Z,17.20
2018-05-25T00:09:17.262Z,15.50
2018-05-25T00:12:19.701Z,16.17
2018-05-25T00:15:22.175Z,15.33
2018-05-25T00:18:24.656Z,14.47
2018-05-25T00:21:27.152Z,13.97
2018-05-25T00:24:29.678Z,12.80
2018-05-25T00:27:32.141Z,13.00
2018-05-25T00:30:34.610Z,13.30
2018-05-25T00:33:37.116Z,11.87
2018-05-25T00:36:39.570Z,10.80
2018-05-25T00:39:42.191Z,11.10
2018-05-25T00:42:44.681Z,10.60
2018-05-25T00:45:47.147Z,10.80
2018-05-25T00:48:49.590Z,10.80
2018-05-25T00:51:52.082Z,9.60
2018-05-25T00:55:06.307Z,9.50
2018-05-25T00:58:08.758Z,8.73
2018-05-25T01:01:11.266Z,8.60
2018-05-25T01:04:13.705Z,8.50
2018-05-25T01:07:16.248Z,7.50
2018-05-25T01:10:18.773Z,8.53
2018-05-25T01:13:21.334Z,8.87
2018-05-25T01:16:23.896Z,9.60
2018-05-25T01:19:26.339Z,9.60
2018-05-25T01:22:28.918Z,9.70
2018-05-25T01:25:31.429Z,10.03
2018-05-25T01:28:33.873Z,12.27
2018-05-25T01:31:36.352Z,10.90
2018-05-25T01:34:38.812Z,15.27
2018-05-25T01:37:41.263Z,15.40
2018-05-25T01:40:43.716Z,11.90
2018-05-25T01:43:46.207Z,10.60
2018-05-25T01:46:48.686Z,10.57
2018-05-25T01:49:51.162Z,8.90
2018-05-25T01:52:53.833Z,8.10
2018-05-25T01:55:56.296Z,8.47
2018-05-25T01:58:58.774Z,8.00
2018-05-25T02:02:01.244Z,7.90
2018-05-25T02:05:03.733Z,8.60
2018-05-25T02:08:06.232Z,7.13
2018-05-25T02:11:08.805Z,7.43
2018-05-25T02:14:11.237Z,7.00
2018-05-25T02:17:13.756Z,7.47
2018-05-25T02:20:16.248Z,7.83
2018-05-25T02:23:18.750Z,7.17
2018-05-25T02:26:21.237Z,7.70
2018-05-25T02:29:23.662Z,8.30
2018-05-25T02:32:26.141Z,9.20
2018-05-25T02:35:28.757Z,9.13
2018-05-25T02:38:31.217Z,7.53
2018-05-25T02:41:33.653Z,7.53
2018-05-25T02:44:36.273Z,7.60
2018-05-25T02:47:38.759Z,8.63
2018-05-25T02:50:41.200Z,8.50
2018-05-25T02:53:43.666Z,7.90
2018-05-25T02:56:46.193Z,8.30
2018-05-25T02:59:48.664Z,8.20
2018-05-25T03:02:51.129Z,7.70
2018-05-25T03:05:53.628Z,7.33
2018-05-25T03:08:56.184Z,7.60
2018-05-25T03:11:58.754Z,8.10
2018-05-25T03:15:01.236Z,7.40
2018-05-25T03:18:03.701Z,7.43
2018-05-25T03:21:06.210Z,7.20
2018-05-25T03:24:08.771Z,7.60
2018-05-25T03:27:11.238Z,7.70
2018-05-25T03:30:13.903Z,7.30
2018-05-25T03:33:16.402Z,7.80
2018-05-25T03:36:18.873Z,7.23
2018-05-25T03:39:21.343Z,7.70
2018-05-25T03:42:23.797Z,7.30
2018-05-25T03:45:26.223Z,7.87
2018-05-25T03:48:28.763Z,6.93
2018-05-25T03:51:31.270Z,7.70
2018-05-25T03:54:33.721Z,7.07
2018-05-25T03:57:36.278Z,7.13
2018-05-25T04:00:50.399Z,7.00
2018-05-25T04:03:53.038Z,7.40
2018-05-25T04:06:55.468Z,7.10
2018-05-25T04:09:57.931Z,7.07
2018-05-25T04:13:00.372Z,7.67
2018-05-25T04:16:02.894Z,7.67
2018-05-25T04:19:05.399Z,7.17
2018-05-25T04:22:07.845Z,7.00
2018-05-25T04:25:10.393Z,7.90
2018-05-25T04:28:12.873Z,7.73
2018-05-25T04:31:16.263Z,7.63
2018-05-25T04:34:18.771Z,7.47
2018-05-25T04:37:21.254Z,7.03
2018-05-25T04:40:23.758Z,7.53
2018-05-25T04:43:26.286Z,7.30
2018-05-25T04:46:28.759Z,7.50
2018-05-25T04:49:31.246Z,7.60
2018-05-25T04:52:33.759Z,7.37
2018-05-25T04:55:36.330Z,7.83
2018-05-25T04:58:38.804Z,7.50
2018-05-25T05:01:41.334Z,7.37
2018-05-25T05:04:43.815Z,7.70
2018-05-25T05:07:46.301Z,7.87
2018-05-25T05:10:48.794Z,7.33
2018-05-25T05:13:51.231Z,8.40
2018-05-25T05:16:53.799Z,7.50
2018-05-25T05:19:56.334Z,7.60
2018-05-25T05:22:58.891Z,7.77
2018-05-25T05:26:01.331Z,8.20
2018-05-25T05:29:03.776Z,7.70
2018-05-25T05:32:06.264Z,7.57
2018-05-25T05:35:08.684Z,7.57
2018-05-25T05:38:11.261Z,7.77
2018-05-25T05:41:13.755Z,8.00
2018-05-25T05:44:16.296Z,7.30
2018-05-25T05:47:18.795Z,6.97
2018-05-25T05:50:21.271Z,7.20
2018-05-25T05:53:23.709Z,7.37
2018-05-25T05:56:26.211Z,7.30
2018-05-25T05:59:28.769Z,7.23
2018-05-25T06:02:31.251Z,7.60
2018-05-25T06:05:33.841Z,7.60
2018-05-25T06:08:36.341Z,7.77
2018-05-25T06:11:38.774Z,7.00
2018-05-25T06:14:41.265Z,7.30
2018-05-25T06:17:43.775Z,7.57
2018-05-25T06:20:46.321Z,6.80
2018-05-25T06:23:48.866Z,7.27
2018-05-25T06:26:51.470Z,7.43
2018-05-25T06:29:53.931Z,6.60
2018-05-25T06:32:56.412Z,7.33
2018-05-25T06:35:58.935Z,7.40
2018-05-25T06:39:01.392Z,7.77
2018-05-25T06:42:03.844Z,7.10
2018-05-25T06:45:06.310Z,7.83
2018-05-25T06:48:08.877Z,7.83
2018-05-25T06:51:11.437Z,7.00
2018-05-25T06:54:13.892Z,7.23
2018-05-25T06:57:16.546Z,7.60
2018-05-25T07:00:19.031Z,7.33
2018-05-25T07:03:21.470Z,6.87
2018-05-25T07:06:23.968Z,7.17
2018-05-25T07:09:26.413Z,7.50
2018-05-25T07:12:28.885Z,6.97
2018-05-25T07:15:31.354Z,8.13
2018-05-25T07:18:33.907Z,7.70
2018-05-25T07:21:36.372Z,8.10
2018-05-25T07:24:38.951Z,8.37
2018-05-25T07:27:41.480Z,8.70
2018-05-25T07:30:43.953Z,8.00
2018-05-25T07:33:46.419Z,8.47
2018-05-25T07:36:48.991Z,8.13
2018-05-25T07:39:51.453Z,8.17
2018-05-25T07:42:53.935Z,8.03
2018-05-25T07:45:56.413Z,8.40
2018-05-25T07:48:58.997Z,8.50
2018-05-25T07:52:01.502Z,8.60
2018-05-25T07:55:03.997Z,7.97
2018-05-25T07:58:06.466Z,8.53
2018-05-25T08:01:08.988Z,8.90
2018-05-25T08:04:11.511Z,8.10
2018-05-25T08:07:13.986Z,9.20
2018-05-25T08:10:16.543Z,8.20
2018-05-25T08:13:19.023Z,9.30
2018-05-25T08:16:21.485Z,8.63
2018-05-25T08:19:24.013Z,8.03
2018-05-25T08:22:26.465Z,9.00
2018-05-25T08:25:29.043Z,8.53
2018-05-25T08:28:31.503Z,8.70
2018-05-25T08:31:34.083Z,8.90
2018-05-25T08:34:39.422Z,8.87
2018-05-25T08:37:41.952Z,8.40
2018-05-25T08:40:44.443Z,8.77
2018-05-25T08:43:46.917Z,7.47
2018-05-25T08:46:49.401Z,9.00
2018-05-25T08:49:51.901Z,8.40
2018-05-25T08:52:54.462Z,9.10
2018-05-25T08:55:57.028Z,8.53
2018-05-25T08:58:59.618Z,9.00
2018-05-25T09:02:02.143Z,9.10
2018-05-25T09:05:04.634Z,9.10
2018-05-25T09:08:07.122Z,9.30
2018-05-25T09:11:09.621Z,9.17
2018-05-25T09:14:12.091Z,8.70
2018-05-25T09:17:14.611Z,9.30
2018-05-25T09:20:17.077Z,9.20
2018-05-25T09:23:19.602Z,9.30
2018-05-25T09:26:22.208Z,9.33
2018-05-25T09:29:24.708Z,8.57
2018-05-25T09:32:27.382Z,9.07
2018-05-25T09:35:29.879Z,9.30
2018-05-25T09:38:32.418Z,8.73
2018-05-25T09:41:34.890Z,9.70
2018-05-25T09:44:37.392Z,9.40
2018-05-25T09:47:39.861Z,8.27
2018-05-25T09:50:42.334Z,9.47
2018-05-25T09:53:44.823Z,9.83
2018-05-25T09:56:58.969Z,9.03
2018-05-25T10:00:01.493Z,8.73
2018-05-25T10:03:03.975Z,9.10
2018-05-25T10:06:06.455Z,9.30
2018-05-25T10:09:09.002Z,9.40
2018-05-25T10:12:11.539Z,9.70
2018-05-25T10:15:14.030Z,8.97
2018-05-25T10:18:16.558Z,8.70
2018-05-25T10:21:19.034Z,8.67
2018-05-25T10:24:21.517Z,8.50
2018-05-25T10:27:23.983Z,9.67
2018-05-25T10:30:26.500Z,9.40
2018-05-25T10:33:29.075Z,8.60
2018-05-25T10:36:31.575Z,9.03
2018-05-25T10:39:34.078Z,9.10
2018-05-25T10:42:36.552Z,10.17
2018-05-25T10:45:39.101Z,9.00
2018-05-25T10:48:41.548Z,9.30
2018-05-25T10:51:44.023Z,8.80
2018-05-25T10:54:46.482Z,8.70
2018-05-25T10:57:48.979Z,8.60
2018-05-25T11:00:51.448Z,8.80
2018-05-25T11:03:53.943Z,9.80
2018-05-25T11:06:56.429Z,9.90
2018-05-25T11:09:58.957Z,9.47
2018-05-25T11:13:01.445Z,9.33
2018-05-25T11:16:03.950Z,8.73
2018-05-25T11:19:06.445Z,8.80
2018-05-25T11:22:08.922Z,9.00
2018-05-25T11:25:11.498Z,8.13
2018-05-25T11:28:13.943Z,8.80
2018-05-25T11:31:16.459Z,8.50
2018-05-25T11:34:18.903Z,8.27
2018-05-25T11:37:21.462Z,8.50
2018-05-25T11:40:24.040Z,9.00
2018-05-25T11:43:26.498Z,8.30
2018-05-25T11:46:29.012Z,9.13
2018-05-25T11:49:31.534Z,9.47
2018-05-25T11:52:34.040Z,8.70
2018-05-25T11:55:36.499Z,9.17
2018-05-25T11:58:39.015Z,8.47
2018-05-25T12:01:41.499Z,9.53
2018-05-25T12:04:43.994Z,9.03
2018-05-25T12:07:46.457Z,9.87
2018-05-25T12:10:48.969Z,10.20
2018-05-25T12:13:51.542Z,9.97
2018-05-25T12:16:54.017Z,9.63
2018-05-25T12:19:56.505Z,9.43
2018-05-25T12:22:59.009Z,9.20
2018-05-25T12:26:01.491Z,9.10
2018-05-25T12:29:03.950Z,10.00
2018-05-25T12:32:06.460Z,10.77
2018-05-25T12:35:09.025Z,11.13
2018-05-25T12:38:11.545Z,10.07
2018-05-25T12:41:13.996Z,10.07
2018-05-25T12:44:16.503Z,9.37
2018-05-25T12:47:19.002Z,9.30
2018-05-25T12:50:21.486Z,9.90
2018-05-25T12:53:23.949Z,9.40
2018-05-25T12:56:26.424Z,10.43
2018-05-25T12:59:28.860Z,9.40
2018-05-25T13:02:31.416Z,9.30
2018-05-25T13:05:33.996Z,9.70
2018-05-25T13:08:36.480Z,9.90
2018-05-25T13:11:38.982Z,9.07
2018-05-25T13:14:41.439Z,8.60
2018-05-25T13:17:43.906Z,9.20
2018-05-25T13:20:46.518Z,8.83
2018-05-25T13:23:49.060Z,7.90
2018-05-25T13:26:51.595Z,9.27
2018-05-25T13:29:54.053Z,9.30
2018-05-25T13:32:56.628Z,8.90
2018-05-25T13:35:59.079Z,9.60
2018-05-25T13:39:01.611Z,9.47
2018-05-25T13:42:04.177Z,9.47
2018-05-25T13:45:06.684Z,8.73
2018-05-25T13:48:09.306Z,9.10
2018-05-25T13:51:11.721Z,8.70
2018-05-25T13:54:14.235Z,8.20
2018-05-25T13:57:16.733Z,8.60
2018-05-25T14:00:19.229Z,8.50
2018-05-25T14:03:21.733Z,8.00
2018-05-25T14:06:24.246Z,8.60
2018-05-25T14:09:26.745Z,9.80
2018-05-25T14:12:29.252Z,8.90
2018-05-25T14:15:31.727Z,8.20
2018-05-25T14:18:34.196Z,8.70
2018-05-25T14:21:36.698Z,7.80
2018-05-25T14:24:39.221Z,8.27
2018-05-25T14:27:41.773Z,8.47
2018-05-25T14:30:44.291Z,8.20
2018-05-25T14:33:46.822Z,8.93
2018-05-25T14:36:49.415Z,8.00
2018-05-25T14:39:51.951Z,7.80
2018-05-25T14:42:54.436Z,8.47
2018-05-25T14:45:56.972Z,8.00
2018-05-25T14:48:59.537Z,8.10
2018-05-25T14:52:02.040Z,8.00
2018-05-25T14:55:04.500Z,7.80
2018-05-25T14:58:07.043Z,8.13
2018-05-25T15:01:09.568Z,8.70
2018-05-25T15:04:12.152Z,7.90
2018-05-25T15:07:14.595Z,8.00
2018-05-25T15:10:17.172Z,7.07
2018-05-25T15:13:19.772Z,7.93
2018-05-25T15:16:22.281Z,8.30
2018-05-25T15:19:24.796Z,8.47
2018-05-25T15:22:27.312Z,7.53
2018-05-25T15:25:29.781Z,7.40
2018-05-25T15:28:32.285Z,8.03
2018-05-25T15:31:34.786Z,7.57
2018-05-25T15:34:37.377Z,7.63
2018-05-25T15:37:39.916Z,7.70
2018-05-25T15:40:42.361Z,8.47
2018-05-25T15:43:44.855Z,8.10
2018-05-25T15:46:47.337Z,8.10
2018-05-25T15:49:49.823Z,7.20
2018-05-25T15:52:52.365Z,7.37
2018-05-25T15:55:54.831Z,7.30
2018-05-25T15:58:57.334Z,7.23
2018-05-25T16:01:59.807Z,7.63
2018-05-25T16:05:02.281Z,7.37
2018-05-25T16:08:04.783Z,8.07
2018-05-25T16:11:07.287Z,7.33
2018-05-25T16:14:09.848Z,7.17
2018-05-25T16:17:12.319Z,7.30
2018-05-25T16:20:14.890Z,7.90
2018-05-25T16:23:17.352Z,8.23
2018-05-25T16:26:19.860Z,7.60
2018-05-25T16:29:22.374Z,7.80
2018-05-25T16:32:24.877Z,7.23
2018-05-25T16:35:27.390Z,7.33
2018-05-25T16:38:29.973Z,7.13
2018-05-25T16:41:32.453Z,7.43
2018-05-25T16:44:34.970Z,7.63
2018-05-25T16:47:37.503Z,7.70
2018-05-25T16:50:39.962Z,7.10
2018-05-25T16:53:42.542Z,7.43
2018-05-25T16:56:44.994Z,7.03
2018-05-25T16:59:47.597Z,6.63
2018-05-25T17:02:50.105Z,6.97
2018-05-25T17:05:52.731Z,6.83
2018-05-25T17:08:55.292Z,6.33
2018-05-25T17:11:57.819Z,6.20
2018-05-25T17:15:00.292Z,6.47
2018-05-25T17:18:02.787Z,7.10
2018-05-25T17:21:05.322Z,7.40
2018-05-25T17:24:07.789Z,11.10
2018-05-25T17:27:10.409Z,7.73
2018-05-25T17:30:12.894Z,6.87
2018-05-25T17:33:15.390Z,7.63
2018-05-25T17:36:17.886Z,7.40
2018-05-25T17:39:20.393Z,7.40
2018-05-25T17:42:22.927Z,7.40
2018-05-25T17:45:25.482Z,7.47
2018-05-25T17:48:28.063Z,7.80
2018-05-25T17:51:30.698Z,7.90
2018-05-25T17:54:33.192Z,7.83
2018-05-25T17:57:35.703Z,7.30
2018-05-25T18:00:38.180Z,8.17
2018-05-25T18:03:40.679Z,7.37
2018-05-25T18:06:43.253Z,7.27
2018-05-25T18:09:45.818Z,7.07
2018-05-25T18:12:48.348Z,7.20
2018-05-25T18:15:50.808Z,7.10
2018-05-25T18:18:53.323Z,7.70
2018-05-25T18:21:55.811Z,8.40
2018-05-25T18:24:58.328Z,7.57
2018-05-25T18:28:00.814Z,7.30
2018-05-25T18:31:03.343Z,7.40
2018-05-25T18:34:05.818Z,7.47
2018-05-25T18:37:08.370Z,7.10
2018-05-25T18:40:10.930Z,7.73
2018-05-25T18:43:13.464Z,7.40
2018-05-25T18:46:15.965Z,6.93
2018-05-25T18:49:18.473Z,7.10
2018-05-25T18:52:21.031Z,7.37
2018-05-25T18:55:23.580Z,7.03
2018-05-25T18:58:26.045Z,6.60
2018-05-25T19:01:28.603Z,7.27
2018-05-25T19:04:31.199Z,7.50
2018-05-25T19:07:33.689Z,7.20
2018-05-25T19:10:36.305Z,7.27
2018-05-25T19:13:38.927Z,6.80
2018-05-25T19:16:41.480Z,7.27
2018-05-25T19:19:44.029Z,7.53
2018-05-25T19:22:46.478Z,7.20
2018-05-25T19:25:48.980Z,7.00
2018-05-25T19:28:51.511Z,7.30
2018-05-25T19:31:54.018Z,6.77
2018-05-25T19:34:56.548Z,7.67
2018-05-25T19:37:59.066Z,7.20
2018-05-25T19:41:01.558Z,6.80
2018-05-25T19:44:04.120Z,7.17
2018-05-25T19:47:06.606Z,7.20
2018-05-25T19:50:09.170Z,7.10
2018-05-25T19:53:11.765Z,7.63
2018-05-25T19:56:14.205Z,7.70
2018-05-25T19:59:16.709Z,8.43
2018-05-25T20:02:19.207Z,7.77
2018-05-25T20:05:21.720Z,8.10
2018-05-25T20:08:24.289Z,6.93
2018-05-25T20:11:26.791Z,7.57
2018-05-25T20:14:29.411Z,8.00
2018-05-25T20:17:31.963Z,7.40
2018-05-25T20:20:34.507Z,7.93
2018-05-25T20:23:37.054Z,7.17
2018-05-25T20:26:39.540Z,7.60
2018-05-25T20:29:42.066Z,7.30
2018-05-25T20:32:44.573Z,7.43
2018-05-25T20:35:47.191Z,7.80
2018-05-25T20:38:49.707Z,8.00
2018-05-25T20:41:52.228Z,7.70
2018-05-25T20:44:54.874Z,7.80
2018-05-25T20:47:57.431Z,7.90
2018-05-25T20:51:00.041Z,7.73
2018-05-25T20:54:02.575Z,9.07
2018-05-25T20:57:05.240Z,8.27
2018-05-25T21:00:07.695Z,8.20
2018-05-25T21:03:10.365Z,8.93
2018-05-25T21:06:12.887Z,8.43
2018-05-25T21:09:15.384Z,8.20
2018-05-25T21:12:17.948Z,8.03
2018-05-25T21:15:20.440Z,8.50
2018-05-25T21:18:22.982Z,8.50
2018-05-25T21:21:25.526Z,8.93
2018-05-25T21:24:28.096Z,8.60
2018-05-25T21:27:30.587Z,8.40
2018-05-25T21:30:33.104Z,11.33
2018-05-25T21:36:44.391Z,9.70
2018-05-25T21:39:46.900Z,11.50
2018-05-25T21:42:49.429Z,10.57
2018-05-25T21:45:51.910Z,11.23
2018-05-25T21:48:54.535Z,10.50
2018-05-25T21:51:57.125Z,10.00
2018-05-25T21:54:59.661Z,10.50
2018-05-25T21:58:02.136Z,10.07
2018-05-25T22:01:04.676Z,10.20
2018-05-25T22:04:07.257Z,10.33
2018-05-25T22:07:09.799Z,10.30
2018-05-25T22:10:12.372Z,10.53
2018-05-25T22:13:14.857Z,10.20
2018-05-25T22:16:17.398Z,10.67
2018-05-25T22:19:19.968Z,10.60
2018-05-25T22:22:22.428Z,10.60
2018-05-25T22:25:24.986Z,10.80
2018-05-25T22:28:27.647Z,11.13
2018-05-25T22:31:30.159Z,9.30
2018-05-25T22:34:32.708Z,9.60
2018-05-25T22:37:35.257Z,10.73
2018-05-25T22:40:37.794Z,9.70
2018-05-25T22:43:52.053Z,9.60
2018-05-25T22:47:06.277Z,9.37
2018-05-25T22:50:20.590Z,8.60
2018-05-25T22:53:28.032Z,8.13
2018-05-25T22:56:30.523Z,7.30
2018-05-25T22:59:33.022Z,7.20
2018-05-25T23:02:35.521Z,6.47
2018-05-25T23:05:37.986Z,6.23
2018-05-25T23:08:40.463Z,6.17
2018-05-25T23:11:42.975Z,6.20
2018-05-25T23:14:45.526Z,6.03
2018-05-25T23:17:48.058Z,5.70
2018-05-25T23:20:50.524Z,5.87
2018-05-25T23:23:53.067Z,5.80
2018-05-25T23:26:55.527Z,5.40
2018-05-25T23:29:58.012Z,5.50
2018-05-25T23:33:00.507Z,5.57
2018-05-25T23:36:03.017Z,5.30
2018-05-25T23:39:05.508Z,5.40
2018-05-25T23:42:07.988Z,5.63
2018-05-25T23:45:10.438Z,5.30
2018-05-25T23:48:12.917Z,5.43
2018-05-25T23:51:15.421Z,5.13
2018-05-25T23:54:17.920Z,5.30
2018-05-25T23:57:20.464Z,5.30
